sensor_id;sensor_type;location;lat;lon;timestamp;temperature;humidity
16825;DHT22;8529;48.108;-1.706;2023-03-23T00:01:34;12.30;99.90
16825;DHT22;8529;48.108;-1.706;2023-03-23T00:04:04;12.40;99.90
16825;DHT22;8529;48.108;-1.706;2023-03-23T00:09:15;12.40;99.90
16825;DHT22;8529;48.108;-1.706;2023-03-23T00:11:43;12.40;99.90
16825;DHT22;8529;48.108;-1.706;2023-03-23T00:14:12;12.40;99.90
16825;DHT22;8529;48.108;-1.706;2023-03-23T00:16:42;12.40;99.90
16825;DHT22;8529;48.108;-1.706;2023-03-23T00:19:14;12.40;99.90
16825;DHT22;8529;48.108;-1.706;2023-03-23T00:21:42;12.50;99.90
16825;DHT22;8529;48.108;-1.706;2023-03-23T00:24:14;12.50;99.90
16825;DHT22;8529;48.108;-1.706;2023-03-23T00:26:48;12.50;99.90
16825;DHT22;8529;48.108;-1.706;2023-03-23T00:29:21;12.50;99.90
16825;DHT22;8529;48.108;-1.706;2023-03-23T00:31:53;12.50;99.90
16825;DHT22;8529;48.108;-1.706;2023-03-23T00:34:25;12.50;99.90
16825;DHT22;8529;48.108;-1.706;2023-03-23T00:36:59;12.50;99.90
16825;DHT22;8529;48.108;-1.706;2023-03-23T00:39:27;12.50;99.90
16825;DHT22;8529;48.108;-1.706;2023-03-23T00:41:55;12.50;99.90
16825;DHT22;8529;48.108;-1.706;2023-03-23T00:44:27;12.40;99.90
16825;DHT22;8529;48.108;-1.706;2023-03-23T00:47:06;12.40;99.90
16825;DHT22;8529;48.108;-1.706;2023-03-23T00:49:34;12.40;99.90
16825;DHT22;8529;48.108;-1.706;2023-03-23T00:52:04;12.50;99.90
16825;DHT22;8529;48.108;-1.706;2023-03-23T00:54:38;12.50;99.90
16825;DHT22;8529;48.108;-1.706;2023-03-23T00:57:05;12.40;99.90
16825;DHT22;8529;48.108;-1.706;2023-03-23T00:59:34;12.40;99.90
16825;DHT22;8529;48.108;-1.706;2023-03-23T01:02:02;12.50;99.90
16825;DHT22;8529;48.108;-1.706;2023-03-23T01:04:29;12.40;99.90
16825;DHT22;8529;48.108;-1.706;2023-03-23T01:06:57;12.40;99.90
16825;DHT22;8529;48.108;-1.706;2023-03-23T01:09:26;12.40;99.90
16825;DHT22;8529;48.108;-1.706;2023-03-23T01:11:53;12.40;99.90
16825;DHT22;8529;48.108;-1.706;2023-03-23T01:14:22;12.50;99.90
16825;DHT22;8529;48.108;-1.706;2023-03-23T01:16:49;12.50;99.90
16825;DHT22;8529;48.108;-1.706;2023-03-23T01:19:17;12.50;99.90
16825;DHT22;8529;48.108;-1.706;2023-03-23T01:21:44;12.50;99.90
16825;DHT22;8529;48.108;-1.706;2023-03-23T01:24:11;12.50;99.90
16825;DHT22;8529;48.108;-1.706;2023-03-23T01:26:38;12.50;99.90
16825;DHT22;8529;48.108;-1.706;2023-03-23T01:29:05;12.50;99.90
16825;DHT22;8529;48.108;-1.706;2023-03-23T01:31:32;12.40;99.90
16825;DHT22;8529;48.108;-1.706;2023-03-23T01:34:00;12.40;99.90
16825;DHT22;8529;48.108;-1.706;2023-03-23T01:36:29;12.40;99.90
16825;DHT22;8529;48.108;-1.706;2023-03-23T01:38:59;12.40;99.90
16825;DHT22;8529;48.108;-1.706;2023-03-23T01:41:26;12.40;99.90
16825;DHT22;8529;48.108;-1.706;2023-03-23T01:43:55;12.40;99.90
16825;DHT22;8529;48.108;-1.706;2023-03-23T01:46:23;12.40;99.90
16825;DHT22;8529;48.108;-1.706;2023-03-23T01:48:51;12.40;99.90
16825;DHT22;8529;48.108;-1.706;2023-03-23T01:51:20;12.40;99.90
16825;DHT22;8529;48.108;-1.706;2023-03-23T01:53:52;12.50;99.90
16825;DHT22;8529;48.108;-1.706;2023-03-23T01:56:21;12.50;99.90
16825;DHT22;8529;48.108;-1.706;2023-03-23T01:58:51;12.50;99.90
16825;DHT22;8529;48.108;-1.706;2023-03-23T02:01:19;12.40;99.90
16825;DHT22;8529;48.108;-1.706;2023-03-23T02:03:53;12.40;99.90
16825;DHT22;8529;48.108;-1.706;2023-03-23T02:06:21;12.40;99.90
16825;DHT22;8529;48.108;-1.706;2023-03-23T02:08:51;12.40;99.90
16825;DHT22;8529;48.108;-1.706;2023-03-23T02:11:20;12.40;99.90
16825;DHT22;8529;48.108;-1.706;2023-03-23T02:13:48;12.40;99.90
16825;DHT22;8529;48.108;-1.706;2023-03-23T02:16:23;12.40;99.90
16825;DHT22;8529;48.108;-1.706;2023-03-23T02:19:22;12.40;99.90
16825;DHT22;8529;48.108;-1.706;2023-03-23T02:22:21;12.40;99.90
16825;DHT22;8529;48.108;-1.706;2023-03-23T02:24:58;12.40;99.90
16825;DHT22;8529;48.108;-1.706;2023-03-23T02:30:53;12.40;99.90
16825;DHT22;8529;48.108;-1.706;2023-03-23T02:33:32;12.40;99.90
16825;DHT22;8529;48.108;-1.706;2023-03-23T02:36:04;12.30;99.90
16825;DHT22;8529;48.108;-1.706;2023-03-23T02:38:37;12.30;99.90
16825;DHT22;8529;48.108;-1.706;2023-03-23T02:41:07;12.40;99.90
16825;DHT22;8529;48.108;-1.706;2023-03-23T02:43:40;12.40;99.90
16825;DHT22;8529;48.108;-1.706;2023-03-23T02:46:10;12.40;99.90
16825;DHT22;8529;48.108;-1.706;2023-03-23T02:48:41;12.40;99.90
16825;DHT22;8529;48.108;-1.706;2023-03-23T02:51:09;12.40;99.90
16825;DHT22;8529;48.108;-1.706;2023-03-23T02:53:40;12.40;99.90
16825;DHT22;8529;48.108;-1.706;2023-03-23T02:56:10;12.40;99.90
16825;DHT22;8529;48.108;-1.706;2023-03-23T02:58:37;12.30;99.90
16825;DHT22;8529;48.108;-1.706;2023-03-23T03:04:03;12.30;99.90
16825;DHT22;8529;48.108;-1.706;2023-03-23T03:06:34;12.30;99.90
16825;DHT22;8529;48.108;-1.706;2023-03-23T03:09:08;12.30;99.90
16825;DHT22;8529;48.108;-1.706;2023-03-23T03:11:43;12.30;99.90
16825;DHT22;8529;48.108;-1.706;2023-03-23T03:14:16;12.30;99.90
16825;DHT22;8529;48.108;-1.706;2023-03-23T03:16:49;12.30;99.90
16825;DHT22;8529;48.108;-1.706;2023-03-23T03:19:23;12.20;99.90
16825;DHT22;8529;48.108;-1.706;2023-03-23T03:21:53;12.20;99.90
16825;DHT22;8529;48.108;-1.706;2023-03-23T03:24:22;12.20;99.90
16825;DHT22;8529;48.108;-1.706;2023-03-23T03:26:52;12.20;99.90
16825;DHT22;8529;48.108;-1.706;2023-03-23T03:29:26;12.20;99.90
16825;DHT22;8529;48.108;-1.706;2023-03-23T03:31:57;12.20;99.90
16825;DHT22;8529;48.108;-1.706;2023-03-23T03:34:26;12.20;99.90
16825;DHT22;8529;48.108;-1.706;2023-03-23T03:36:55;12.20;99.90
16825;DHT22;8529;48.108;-1.706;2023-03-23T03:39:24;12.20;99.90
16825;DHT22;8529;48.108;-1.706;2023-03-23T03:41:51;12.20;99.90
16825;DHT22;8529;48.108;-1.706;2023-03-23T03:44:18;12.20;99.90
16825;DHT22;8529;48.108;-1.706;2023-03-23T03:46:46;12.20;99.90
16825;DHT22;8529;48.108;-1.706;2023-03-23T03:49:12;12.20;99.90
16825;DHT22;8529;48.108;-1.706;2023-03-23T03:51:42;12.20;99.90
16825;DHT22;8529;48.108;-1.706;2023-03-23T03:54:09;12.20;99.90
16825;DHT22;8529;48.108;-1.706;2023-03-23T03:56:36;12.20;99.90
16825;DHT22;8529;48.108;-1.706;2023-03-23T03:59:05;12.20;99.90
16825;DHT22;8529;48.108;-1.706;2023-03-23T04:01:33;12.20;99.90
16825;DHT22;8529;48.108;-1.706;2023-03-23T04:04:00;12.20;99.90
16825;DHT22;8529;48.108;-1.706;2023-03-23T04:06:27;12.20;99.90
16825;DHT22;8529;48.108;-1.706;2023-03-23T04:08:55;12.20;99.90
16825;DHT22;8529;48.108;-1.706;2023-03-23T04:11:25;12.20;99.90
16825;DHT22;8529;48.108;-1.706;2023-03-23T04:13:52;12.30;99.90
16825;DHT22;8529;48.108;-1.706;2023-03-23T04:16:19;12.30;99.90
16825;DHT22;8529;48.108;-1.706;2023-03-23T04:18:46;12.30;99.90
16825;DHT22;8529;48.108;-1.706;2023-03-23T04:21:14;12.30;99.90
16825;DHT22;8529;48.108;-1.706;2023-03-23T04:23:41;12.30;99.90
16825;DHT22;8529;48.108;-1.706;2023-03-23T04:26:09;12.30;99.90
16825;DHT22;8529;48.108;-1.706;2023-03-23T04:28:38;12.30;99.90
16825;DHT22;8529;48.108;-1.706;2023-03-23T04:31:06;12.30;99.90
16825;DHT22;8529;48.108;-1.706;2023-03-23T04:33:34;12.30;99.90
16825;DHT22;8529;48.108;-1.706;2023-03-23T04:36:03;12.30;99.90
16825;DHT22;8529;48.108;-1.706;2023-03-23T04:38:32;12.30;99.90
16825;DHT22;8529;48.108;-1.706;2023-03-23T04:41:00;12.30;99.90
16825;DHT22;8529;48.108;-1.706;2023-03-23T04:43:29;12.30;99.90
16825;DHT22;8529;48.108;-1.706;2023-03-23T04:45:57;12.30;99.90
16825;DHT22;8529;48.108;-1.706;2023-03-23T04:48:24;12.30;99.90
16825;DHT22;8529;48.108;-1.706;2023-03-23T04:50:51;12.30;99.90
16825;DHT22;8529;48.108;-1.706;2023-03-23T04:53:18;12.30;99.90
16825;DHT22;8529;48.108;-1.706;2023-03-23T04:55:46;12.30;99.90
16825;DHT22;8529;48.108;-1.706;2023-03-23T04:58:15;12.30;99.90
16825;DHT22;8529;48.108;-1.706;2023-03-23T05:00:44;12.30;99.90
16825;DHT22;8529;48.108;-1.706;2023-03-23T05:03:15;12.20;99.90
16825;DHT22;8529;48.108;-1.706;2023-03-23T05:05:42;12.20;99.90
16825;DHT22;8529;48.108;-1.706;2023-03-23T05:08:12;12.30;99.90
16825;DHT22;8529;48.108;-1.706;2023-03-23T05:10:39;12.30;99.90
16825;DHT22;8529;48.108;-1.706;2023-03-23T05:13:06;12.20;99.90
16825;DHT22;8529;48.108;-1.706;2023-03-23T05:15:33;12.20;99.90
16825;DHT22;8529;48.108;-1.706;2023-03-23T05:18:02;12.20;99.90
16825;DHT22;8529;48.108;-1.706;2023-03-23T05:20:28;12.20;99.90
16825;DHT22;8529;48.108;-1.706;2023-03-23T05:22:55;12.20;99.90
16825;DHT22;8529;48.108;-1.706;2023-03-23T05:25:23;12.20;99.90
16825;DHT22;8529;48.108;-1.706;2023-03-23T05:27:50;12.20;99.90
16825;DHT22;8529;48.108;-1.706;2023-03-23T05:30:18;12.20;99.90
16825;DHT22;8529;48.108;-1.706;2023-03-23T05:32:46;12.20;99.90
16825;DHT22;8529;48.108;-1.706;2023-03-23T05:35:18;12.20;99.90
16825;DHT22;8529;48.108;-1.706;2023-03-23T05:37:45;12.20;99.90
16825;DHT22;8529;48.108;-1.706;2023-03-23T05:40:13;12.20;99.90
16825;DHT22;8529;48.108;-1.706;2023-03-23T05:42:41;12.20;99.90
16825;DHT22;8529;48.108;-1.706;2023-03-23T05:45:09;12.20;99.90
16825;DHT22;8529;48.108;-1.706;2023-03-23T05:47:36;12.20;99.90
16825;DHT22;8529;48.108;-1.706;2023-03-23T05:50:04;12.20;99.90
16825;DHT22;8529;48.108;-1.706;2023-03-23T05:52:33;12.20;99.90
16825;DHT22;8529;48.108;-1.706;2023-03-23T05:55:01;12.20;99.90
16825;DHT22;8529;48.108;-1.706;2023-03-23T05:57:29;12.20;99.90
16825;DHT22;8529;48.108;-1.706;2023-03-23T05:59:56;12.20;99.90
16825;DHT22;8529;48.108;-1.706;2023-03-23T06:02:24;12.20;99.90
16825;DHT22;8529;48.108;-1.706;2023-03-23T06:04:53;12.20;99.90
16825;DHT22;8529;48.108;-1.706;2023-03-23T06:07:24;12.20;99.90
16825;DHT22;8529;48.108;-1.706;2023-03-23T06:09:53;12.20;99.90
16825;DHT22;8529;48.108;-1.706;2023-03-23T06:12:19;12.20;99.90
16825;DHT22;8529;48.108;-1.706;2023-03-23T06:14:48;12.20;99.90
16825;DHT22;8529;48.108;-1.706;2023-03-23T06:17:15;12.20;99.90
16825;DHT22;8529;48.108;-1.706;2023-03-23T06:19:43;12.20;99.90
16825;DHT22;8529;48.108;-1.706;2023-03-23T06:22:11;12.20;99.90
16825;DHT22;8529;48.108;-1.706;2023-03-23T06:24:38;12.20;99.90
16825;DHT22;8529;48.108;-1.706;2023-03-23T06:27:06;12.20;99.90
16825;DHT22;8529;48.108;-1.706;2023-03-23T06:29:34;12.20;99.90
16825;DHT22;8529;48.108;-1.706;2023-03-23T06:32:03;12.20;99.90
16825;DHT22;8529;48.108;-1.706;2023-03-23T06:34:30;12.20;99.90
16825;DHT22;8529;48.108;-1.706;2023-03-23T06:36:58;12.20;99.90
16825;DHT22;8529;48.108;-1.706;2023-03-23T06:39:25;12.20;99.90
16825;DHT22;8529;48.108;-1.706;2023-03-23T06:41:53;12.20;99.90
16825;DHT22;8529;48.108;-1.706;2023-03-23T06:44:21;12.20;99.90
16825;DHT22;8529;48.108;-1.706;2023-03-23T06:46:48;12.20;99.90
16825;DHT22;8529;48.108;-1.706;2023-03-23T06:49:15;12.30;99.90
16825;DHT22;8529;48.108;-1.706;2023-03-23T06:51:42;12.30;99.90
16825;DHT22;8529;48.108;-1.706;2023-03-23T06:54:09;12.30;99.90
16825;DHT22;8529;48.108;-1.706;2023-03-23T06:56:36;12.30;99.90
16825;DHT22;8529;48.108;-1.706;2023-03-23T06:59:02;12.30;99.90
16825;DHT22;8529;48.108;-1.706;2023-03-23T07:01:31;12.40;99.90
16825;DHT22;8529;48.108;-1.706;2023-03-23T07:03:58;12.40;99.90
16825;DHT22;8529;48.108;-1.706;2023-03-23T07:06:25;12.40;99.90
16825;DHT22;8529;48.108;-1.706;2023-03-23T07:08:52;12.40;99.90
16825;DHT22;8529;48.108;-1.706;2023-03-23T07:11:19;12.40;99.90
16825;DHT22;8529;48.108;-1.706;2023-03-23T07:13:46;12.40;99.90
16825;DHT22;8529;48.108;-1.706;2023-03-23T07:16:15;12.40;99.90
16825;DHT22;8529;48.108;-1.706;2023-03-23T07:18:43;12.50;99.90
16825;DHT22;8529;48.108;-1.706;2023-03-23T07:21:10;12.50;99.90
16825;DHT22;8529;48.108;-1.706;2023-03-23T07:23:37;12.50;99.90
16825;DHT22;8529;48.108;-1.706;2023-03-23T07:26:04;12.50;99.90
16825;DHT22;8529;48.108;-1.706;2023-03-23T07:28:32;12.60;99.90
16825;DHT22;8529;48.108;-1.706;2023-03-23T07:30:59;12.60;99.90
16825;DHT22;8529;48.108;-1.706;2023-03-23T07:33:26;12.60;99.90
16825;DHT22;8529;48.108;-1.706;2023-03-23T07:35:54;12.60;99.90
16825;DHT22;8529;48.108;-1.706;2023-03-23T07:38:21;12.60;99.90
16825;DHT22;8529;48.108;-1.706;2023-03-23T07:40:50;12.60;99.90
16825;DHT22;8529;48.108;-1.706;2023-03-23T07:43:18;12.70;99.90
16825;DHT22;8529;48.108;-1.706;2023-03-23T07:45:44;12.70;99.90
16825;DHT22;8529;48.108;-1.706;2023-03-23T07:48:11;12.70;99.90
16825;DHT22;8529;48.108;-1.706;2023-03-23T07:50:39;12.70;99.90
16825;DHT22;8529;48.108;-1.706;2023-03-23T07:53:07;12.80;99.90
16825;DHT22;8529;48.108;-1.706;2023-03-23T07:55:34;12.80;99.90
16825;DHT22;8529;48.108;-1.706;2023-03-23T07:58:01;12.80;99.90
16825;DHT22;8529;48.108;-1.706;2023-03-23T08:00:28;12.80;99.90
16825;DHT22;8529;48.108;-1.706;2023-03-23T08:02:56;12.80;99.90
16825;DHT22;8529;48.108;-1.706;2023-03-23T08:05:25;12.80;99.90
16825;DHT22;8529;48.108;-1.706;2023-03-23T08:07:53;12.80;99.90
16825;DHT22;8529;48.108;-1.706;2023-03-23T08:10:23;12.80;99.90
16825;DHT22;8529;48.108;-1.706;2023-03-23T08:12:51;12.80;99.90
16825;DHT22;8529;48.108;-1.706;2023-03-23T08:15:19;12.80;99.90
16825;DHT22;8529;48.108;-1.706;2023-03-23T08:17:47;12.80;99.90
16825;DHT22;8529;48.108;-1.706;2023-03-23T08:20:15;12.80;99.90
16825;DHT22;8529;48.108;-1.706;2023-03-23T08:22:45;12.90;99.90
16825;DHT22;8529;48.108;-1.706;2023-03-23T08:25:15;12.90;99.90
16825;DHT22;8529;48.108;-1.706;2023-03-23T08:27:44;12.90;99.90
16825;DHT22;8529;48.108;-1.706;2023-03-23T08:30:13;12.90;99.90
16825;DHT22;8529;48.108;-1.706;2023-03-23T08:32:40;13.00;99.90
16825;DHT22;8529;48.108;-1.706;2023-03-23T08:35:08;13.00;99.90
16825;DHT22;8529;48.108;-1.706;2023-03-23T08:37:37;13.10;99.90
16825;DHT22;8529;48.108;-1.706;2023-03-23T08:40:05;13.10;99.90
16825;DHT22;8529;48.108;-1.706;2023-03-23T08:42:35;13.10;99.90
16825;DHT22;8529;48.108;-1.706;2023-03-23T08:45:05;13.10;99.90
16825;DHT22;8529;48.108;-1.706;2023-03-23T08:47:33;13.20;99.90
16825;DHT22;8529;48.108;-1.706;2023-03-23T08:49:59;13.20;99.90
16825;DHT22;8529;48.108;-1.706;2023-03-23T08:52:27;13.20;99.90
16825;DHT22;8529;48.108;-1.706;2023-03-23T08:54:55;13.20;99.90
16825;DHT22;8529;48.108;-1.706;2023-03-23T08:57:22;13.20;99.90
16825;DHT22;8529;48.108;-1.706;2023-03-23T08:59:49;13.20;99.90
16825;DHT22;8529;48.108;-1.706;2023-03-23T09:02:18;13.20;99.90
16825;DHT22;8529;48.108;-1.706;2023-03-23T09:04:45;13.10;99.90
16825;DHT22;8529;48.108;-1.706;2023-03-23T09:07:12;13.10;99.90
16825;DHT22;8529;48.108;-1.706;2023-03-23T09:09:40;13.10;99.90
16825;DHT22;8529;48.108;-1.706;2023-03-23T09:12:08;13.10;99.90
16825;DHT22;8529;48.108;-1.706;2023-03-23T09:14:36;13.00;99.90
16825;DHT22;8529;48.108;-1.706;2023-03-23T09:17:04;13.00;99.90
16825;DHT22;8529;48.108;-1.706;2023-03-23T09:19:33;13.00;99.90
16825;DHT22;8529;48.108;-1.706;2023-03-23T09:22:01;13.00;99.90
16825;DHT22;8529;48.108;-1.706;2023-03-23T09:24:29;13.00;99.90
16825;DHT22;8529;48.108;-1.706;2023-03-23T09:26:56;13.10;99.90
16825;DHT22;8529;48.108;-1.706;2023-03-23T09:29:24;13.10;99.90
16825;DHT22;8529;48.108;-1.706;2023-03-23T09:31:52;13.10;99.90
16825;DHT22;8529;48.108;-1.706;2023-03-23T09:34:19;13.10;99.90
16825;DHT22;8529;48.108;-1.706;2023-03-23T09:36:48;13.20;99.90
16825;DHT22;8529;48.108;-1.706;2023-03-23T09:39:15;13.20;99.90
16825;DHT22;8529;48.108;-1.706;2023-03-23T09:41:55;13.20;99.90
16825;DHT22;8529;48.108;-1.706;2023-03-23T09:44:30;13.30;99.90
16825;DHT22;8529;48.108;-1.706;2023-03-23T09:47:02;13.40;99.90
16825;DHT22;8529;48.108;-1.706;2023-03-23T09:49:33;13.50;99.90
16825;DHT22;8529;48.108;-1.706;2023-03-23T09:52:04;13.50;99.90
16825;DHT22;8529;48.108;-1.706;2023-03-23T09:54:36;13.60;99.90
16825;DHT22;8529;48.108;-1.706;2023-03-23T09:57:04;13.60;99.90
16825;DHT22;8529;48.108;-1.706;2023-03-23T09:59:40;13.60;99.90
16825;DHT22;8529;48.108;-1.706;2023-03-23T10:02:13;13.60;99.90
16825;DHT22;8529;48.108;-1.706;2023-03-23T10:04:45;13.60;99.90
16825;DHT22;8529;48.108;-1.706;2023-03-23T10:07:15;13.60;99.90
16825;DHT22;8529;48.108;-1.706;2023-03-23T10:09:45;13.50;99.90
16825;DHT22;8529;48.108;-1.706;2023-03-23T10:12:25;13.50;99.90
16825;DHT22;8529;48.108;-1.706;2023-03-23T10:15:09;13.50;99.90
16825;DHT22;8529;48.108;-1.706;2023-03-23T10:17:42;13.60;99.90
16825;DHT22;8529;48.108;-1.706;2023-03-23T10:20:32;13.60;99.90
16825;DHT22;8529;48.108;-1.706;2023-03-23T10:23:13;13.70;99.90
16825;DHT22;8529;48.108;-1.706;2023-03-23T10:25:43;13.70;99.90
16825;DHT22;8529;48.108;-1.706;2023-03-23T10:28:14;13.70;99.90
16825;DHT22;8529;48.108;-1.706;2023-03-23T10:30:44;13.70;99.90
16825;DHT22;8529;48.108;-1.706;2023-03-23T10:33:16;13.70;99.90
16825;DHT22;8529;48.108;-1.706;2023-03-23T10:35:48;13.70;99.90
16825;DHT22;8529;48.108;-1.706;2023-03-23T10:38:22;13.80;99.90
16825;DHT22;8529;48.108;-1.706;2023-03-23T10:40:54;13.80;99.90
16825;DHT22;8529;48.108;-1.706;2023-03-23T10:43:23;13.70;99.90
16825;DHT22;8529;48.108;-1.706;2023-03-23T10:45:56;13.70;99.90
16825;DHT22;8529;48.108;-1.706;2023-03-23T10:48:28;13.70;99.90
16825;DHT22;8529;48.108;-1.706;2023-03-23T10:51:00;13.70;99.90
16825;DHT22;8529;48.108;-1.706;2023-03-23T10:53:31;13.60;99.90
16825;DHT22;8529;48.108;-1.706;2023-03-23T10:55:59;13.60;99.90
16825;DHT22;8529;48.108;-1.706;2023-03-23T10:58:27;13.60;99.90
16825;DHT22;8529;48.108;-1.706;2023-03-23T11:00:56;13.50;99.90
16825;DHT22;8529;48.108;-1.706;2023-03-23T11:03:28;13.50;99.90
16825;DHT22;8529;48.108;-1.706;2023-03-23T11:05:59;13.50;99.90
16825;DHT22;8529;48.108;-1.706;2023-03-23T11:08:32;13.50;99.90
16825;DHT22;8529;48.108;-1.706;2023-03-23T11:11:09;13.50;99.90
16825;DHT22;8529;48.108;-1.706;2023-03-23T11:13:41;13.50;99.90
16825;DHT22;8529;48.108;-1.706;2023-03-23T11:16:09;13.50;99.90
16825;DHT22;8529;48.108;-1.706;2023-03-23T11:18:39;13.50;99.90
16825;DHT22;8529;48.108;-1.706;2023-03-23T11:21:07;13.50;99.90
16825;DHT22;8529;48.108;-1.706;2023-03-23T11:23:39;13.60;99.90
16825;DHT22;8529;48.108;-1.706;2023-03-23T11:26:13;13.70;99.90
16825;DHT22;8529;48.108;-1.706;2023-03-23T11:28:44;13.70;99.90
16825;DHT22;8529;48.108;-1.706;2023-03-23T11:31:12;13.80;99.90
16825;DHT22;8529;48.108;-1.706;2023-03-23T11:33:52;13.70;99.90
16825;DHT22;8529;48.108;-1.706;2023-03-23T11:36:20;13.70;99.90
16825;DHT22;8529;48.108;-1.706;2023-03-23T11:38:53;13.70;99.90
16825;DHT22;8529;48.108;-1.706;2023-03-23T11:41:23;13.70;99.90
16825;DHT22;8529;48.108;-1.706;2023-03-23T11:43:52;13.60;99.90
16825;DHT22;8529;48.108;-1.706;2023-03-23T11:46:29;13.60;99.90
16825;DHT22;8529;48.108;-1.706;2023-03-23T11:49:00;13.60;99.90
16825;DHT22;8529;48.108;-1.706;2023-03-23T11:51:32;13.60;99.90
16825;DHT22;8529;48.108;-1.706;2023-03-23T11:54:09;13.70;99.90
16825;DHT22;8529;48.108;-1.706;2023-03-23T11:56:38;13.70;99.90
16825;DHT22;8529;48.108;-1.706;2023-03-23T11:59:10;13.70;99.90
16825;DHT22;8529;48.108;-1.706;2023-03-23T12:01:50;13.70;99.90
16825;DHT22;8529;48.108;-1.706;2023-03-23T12:04:38;13.80;99.90
16825;DHT22;8529;48.108;-1.706;2023-03-23T12:07:18;13.80;99.90
16825;DHT22;8529;48.108;-1.706;2023-03-23T12:09:55;13.90;99.90
16825;DHT22;8529;48.108;-1.706;2023-03-23T12:12:29;14.00;99.90
16825;DHT22;8529;48.108;-1.706;2023-03-23T12:15:05;14.00;99.90
16825;DHT22;8529;48.108;-1.706;2023-03-23T12:17:44;14.10;99.90
16825;DHT22;8529;48.108;-1.706;2023-03-23T12:20:21;14.10;99.90
16825;DHT22;8529;48.108;-1.706;2023-03-23T12:22:58;14.10;99.90
16825;DHT22;8529;48.108;-1.706;2023-03-23T12:25:56;14.20;99.90
16825;DHT22;8529;48.108;-1.706;2023-03-23T12:28:33;14.20;99.90
16825;DHT22;8529;48.108;-1.706;2023-03-23T12:31:10;14.30;99.90
16825;DHT22;8529;48.108;-1.706;2023-03-23T12:33:45;14.30;99.90
16825;DHT22;8529;48.108;-1.706;2023-03-23T12:36:26;14.30;99.90
16825;DHT22;8529;48.108;-1.706;2023-03-23T12:39:30;14.40;99.90
16825;DHT22;8529;48.108;-1.706;2023-03-23T12:42:05;14.40;99.90
16825;DHT22;8529;48.108;-1.706;2023-03-23T12:44:41;14.40;99.90
16825;DHT22;8529;48.108;-1.706;2023-03-23T12:47:25;14.40;99.90
16825;DHT22;8529;48.108;-1.706;2023-03-23T12:49:58;14.40;99.90
16825;DHT22;8529;48.108;-1.706;2023-03-23T12:52:30;14.40;99.90
16825;DHT22;8529;48.108;-1.706;2023-03-23T12:55:01;14.40;99.90
16825;DHT22;8529;48.108;-1.706;2023-03-23T12:57:35;14.40;99.90
16825;DHT22;8529;48.108;-1.706;2023-03-23T13:00:12;14.50;99.90
16825;DHT22;8529;48.108;-1.706;2023-03-23T13:02:43;14.50;99.90
16825;DHT22;8529;48.108;-1.706;2023-03-23T13:05:27;14.50;99.90
16825;DHT22;8529;48.108;-1.706;2023-03-23T13:07:58;14.50;99.90
16825;DHT22;8529;48.108;-1.706;2023-03-23T13:10:32;14.50;99.90
16825;DHT22;8529;48.108;-1.706;2023-03-23T13:13:01;14.50;99.90
16825;DHT22;8529;48.108;-1.706;2023-03-23T13:15:35;14.50;99.90
16825;DHT22;8529;48.108;-1.706;2023-03-23T13:18:10;14.50;99.90
16825;DHT22;8529;48.108;-1.706;2023-03-23T13:20:48;14.50;99.90
16825;DHT22;8529;48.108;-1.706;2023-03-23T13:23:19;14.50;99.90
16825;DHT22;8529;48.108;-1.706;2023-03-23T13:25:51;14.60;99.90
16825;DHT22;8529;48.108;-1.706;2023-03-23T13:28:23;14.60;99.90
16825;DHT22;8529;48.108;-1.706;2023-03-23T13:30:56;14.50;99.90
16825;DHT22;8529;48.108;-1.706;2023-03-23T13:33:24;14.50;99.90
16825;DHT22;8529;48.108;-1.706;2023-03-23T13:35:51;14.60;99.90
16825;DHT22;8529;48.108;-1.706;2023-03-23T13:38:21;14.60;99.90
16825;DHT22;8529;48.108;-1.706;2023-03-23T13:40:51;14.60;99.90
16825;DHT22;8529;48.108;-1.706;2023-03-23T13:43:29;14.60;99.90
16825;DHT22;8529;48.108;-1.706;2023-03-23T13:46:11;14.60;99.90
16825;DHT22;8529;48.108;-1.706;2023-03-23T13:48:43;14.60;99.90
16825;DHT22;8529;48.108;-1.706;2023-03-23T13:51:26;14.60;99.90
16825;DHT22;8529;48.108;-1.706;2023-03-23T13:54:06;14.60;99.90
16825;DHT22;8529;48.108;-1.706;2023-03-23T13:56:41;14.50;99.90
16825;DHT22;8529;48.108;-1.706;2023-03-23T13:59:15;14.50;99.90
16825;DHT22;8529;48.108;-1.706;2023-03-23T14:01:43;14.40;99.90
16825;DHT22;8529;48.108;-1.706;2023-03-23T14:04:14;14.50;99.90
16825;DHT22;8529;48.108;-1.706;2023-03-23T14:06:42;14.50;99.90
16825;DHT22;8529;48.108;-1.706;2023-03-23T14:09:14;14.50;99.90
16825;DHT22;8529;48.108;-1.706;2023-03-23T14:11:48;14.50;99.90
16825;DHT22;8529;48.108;-1.706;2023-03-23T14:14:24;14.50;99.90
16825;DHT22;8529;48.108;-1.706;2023-03-23T14:16:52;14.50;99.90
16825;DHT22;8529;48.108;-1.706;2023-03-23T14:19:22;14.50;99.90
16825;DHT22;8529;48.108;-1.706;2023-03-23T14:21:52;14.60;99.90
16825;DHT22;8529;48.108;-1.706;2023-03-23T14:24:22;14.60;99.90
16825;DHT22;8529;48.108;-1.706;2023-03-23T14:26:51;14.50;99.90
16825;DHT22;8529;48.108;-1.706;2023-03-23T14:29:21;14.60;99.90
16825;DHT22;8529;48.108;-1.706;2023-03-23T14:31:53;14.50;99.90
16825;DHT22;8529;48.108;-1.706;2023-03-23T14:34:23;14.50;99.90
16825;DHT22;8529;48.108;-1.706;2023-03-23T14:36:53;14.40;99.90
16825;DHT22;8529;48.108;-1.706;2023-03-23T14:39:23;14.40;99.90
16825;DHT22;8529;48.108;-1.706;2023-03-23T14:41:53;14.30;99.90
16825;DHT22;8529;48.108;-1.706;2023-03-23T14:44:25;14.30;99.90
16825;DHT22;8529;48.108;-1.706;2023-03-23T14:46:53;14.30;99.90
16825;DHT22;8529;48.108;-1.706;2023-03-23T14:49:29;14.30;99.90
16825;DHT22;8529;48.108;-1.706;2023-03-23T14:51:56;14.20;99.90
16825;DHT22;8529;48.108;-1.706;2023-03-23T14:54:25;14.30;99.90
16825;DHT22;8529;48.108;-1.706;2023-03-23T14:56:52;14.20;99.90
16825;DHT22;8529;48.108;-1.706;2023-03-23T14:59:19;14.20;99.90
16825;DHT22;8529;48.108;-1.706;2023-03-23T15:01:50;14.10;99.90
16825;DHT22;8529;48.108;-1.706;2023-03-23T15:04:18;14.20;99.90
16825;DHT22;8529;48.108;-1.706;2023-03-23T15:06:49;14.10;99.90
16825;DHT22;8529;48.108;-1.706;2023-03-23T15:09:20;14.10;99.90
16825;DHT22;8529;48.108;-1.706;2023-03-23T15:11:53;14.00;99.90
16825;DHT22;8529;48.108;-1.706;2023-03-23T15:14:22;13.90;99.90
16825;DHT22;8529;48.108;-1.706;2023-03-23T15:16:53;13.90;99.90
16825;DHT22;8529;48.108;-1.706;2023-03-23T15:19:24;13.80;99.90
16825;DHT22;8529;48.108;-1.706;2023-03-23T15:21:53;13.80;99.90
16825;DHT22;8529;48.108;-1.706;2023-03-23T15:24:26;13.80;99.90
16825;DHT22;8529;48.108;-1.706;2023-03-23T15:26:53;13.80;99.90
16825;DHT22;8529;48.108;-1.706;2023-03-23T15:29:28;13.80;99.90
16825;DHT22;8529;48.108;-1.706;2023-03-23T15:31:57;13.70;99.90
16825;DHT22;8529;48.108;-1.706;2023-03-23T15:34:30;13.70;99.90
16825;DHT22;8529;48.108;-1.706;2023-03-23T15:37:00;13.60;99.90
16825;DHT22;8529;48.108;-1.706;2023-03-23T15:39:28;13.60;99.90
16825;DHT22;8529;48.108;-1.706;2023-03-23T15:41:56;13.50;99.90
16825;DHT22;8529;48.108;-1.706;2023-03-23T15:44:26;13.50;99.90
16825;DHT22;8529;48.108;-1.706;2023-03-23T15:47:04;13.50;99.90
16825;DHT22;8529;48.108;-1.706;2023-03-23T15:49:37;13.50;99.90
16825;DHT22;8529;48.108;-1.706;2023-03-23T15:52:06;13.50;99.90
16825;DHT22;8529;48.108;-1.706;2023-03-23T15:54:34;13.50;99.90
16825;DHT22;8529;48.108;-1.706;2023-03-23T15:57:01;13.50;99.90
16825;DHT22;8529;48.108;-1.706;2023-03-23T15:59:27;13.50;99.90